CAMANCHE RESERVOIR (CMN)

Elevation: 236' · MOKELUMNE R basin · Operator: East Bay Municipal Utility District

Provisional data, subject to change.
Query executed Friday at 4:08:29   clock

Select a sensor type for a plot of data.
Note: Reservoir Flows are daily averages.

Earlier

Date RES ELE    STORAGE    RES CHG    TOC STO    ABV TOC    OUTFLOW    INFLOW   
 FEET   AF   AF   AF   AF   CFS   CFS  
04/07/2016 200.71 196770 1299 324712 -127942 667 1359
04/08/2016 201.01 198300 1554 326279 -- 557 1361
04/09/2016 201.41 200350 2047 327846 -- 464 1364
04/10/2016 201.79 202300 1959 329413 -127113 358 1364
04/11/2016 202.16 204220 1906 330981 -126761 329 1364
04/12/2016 202.53 206150 1922 332548 -126398 324 1366
04/13/2016 202.90 208080 1928 334115 -126035 325 1369
04/14/2016 203.28 210080 1974 335682 -125602 322 1369
04/15/2016 203.64 211980 1892 337249 -- 320 1367
04/16/2016 204.00 213900 1906 338816 -- 320 1358
04/17/2016 204.35 215770 1894 340384 -124614 320 1360
04/18/2016 204.72 217750 2007 341951 -124201 320 1362
04/19/2016 205.00 219260 1515 343518 -124258 330 1363
04/20/2016 205.41 221490 2210 345085 -123595 330 1365
04/21/2016 205.76 223400 1973 346652 -123252 341 1369
04/22/2016 206.14 225480 2121 348219 -- 345 1371
04/23/2016 206.49 227400 1866 349787 -- 345 1372
04/24/2016 206.83 229280 1906 351354 -122074 345 1373
04/25/2016 207.16 231110 1871 352921 -121811 348 1376
04/26/2016 207.50 233010 1966 354488 -121478 347 1379
04/27/2016 207.84 234920 1950 356055 -121135 346 1356
04/28/2016 208.17 236770 1897 357622 -120852 383 1374
04/29/2016 208.49 238580 1860 359190 -- 400 1377
04/30/2016 208.80 240340 1710 360757 -- 400 1378
05/01/2016 209.10 242060 1815 362324 -120264 401 1373
05/02/2016 209.42 243890 1828 363891 -120001 400 1366
05/03/2016 209.74 245730 1829 365458 -119728 400 1356
05/04/2016 210.03 247400 1711 367025 -119625 410 1335
05/05/2016 210.33 249147 1747 -- -- 415 1354
05/06/2016 -- -- -- -- -- -- --

Later | Latest

Warning! This data is preliminary and subject to revision.

Show CMN Map | Plot CMN Data | 1 Month CMN Data | Real-Time CMN Data | CMN Info